sensor_id;sensor_type;location;lat;lon;timestamp;pressure;altitude;pressure_sealevel;temperature;humidity
50125;BME280;36023;48.670;6.184;2023-05-11T00:02:15;98918.50;;;19.59;46.85
50125;BME280;36023;48.670;6.184;2023-05-11T00:04:41;98914.19;;;19.58;46.78
50125;BME280;36023;48.670;6.184;2023-05-11T00:07:08;98910.72;;;19.57;46.78
50125;BME280;36023;48.670;6.184;2023-05-11T00:09:34;98912.50;;;19.57;46.68
50125;BME280;36023;48.670;6.184;2023-05-11T00:12:00;98910.72;;;19.57;46.90
50125;BME280;36023;48.670;6.184;2023-05-11T00:14:27;98909.88;;;19.57;46.84
50125;BME280;36023;48.670;6.184;2023-05-11T00:16:54;98907.25;;;19.57;46.86
50125;BME280;36023;48.670;6.184;2023-05-11T00:19:20;98908.16;;;19.56;46.79
50125;BME280;36023;48.670;6.184;2023-05-11T00:21:47;98909.88;;;19.57;46.86
50125;BME280;36023;48.670;6.184;2023-05-11T00:24:14;98904.59;;;19.57;46.85
50125;BME280;36023;48.670;6.184;2023-05-11T00:26:41;98897.63;;;19.56;46.71
50125;BME280;36023;48.670;6.184;2023-05-11T00:29:08;98890.69;;;19.55;46.68
50125;BME280;36023;48.670;6.184;2023-05-11T00:31:34;98901.22;;;19.55;46.73
50125;BME280;36023;48.670;6.184;2023-05-11T00:34:00;98895.94;;;19.55;46.72
50125;BME280;36023;48.670;6.184;2023-05-11T00:36:27;98899.41;;;19.55;46.76
50125;BME280;36023;48.670;6.184;2023-05-11T00:38:53;98895.94;;;19.55;46.80
50125;BME280;36023;48.670;6.184;2023-05-11T00:41:19;98894.25;;;19.54;46.61
50125;BME280;36023;48.670;6.184;2023-05-11T00:43:46;98892.53;;;19.53;46.53
50125;BME280;36023;48.670;6.184;2023-05-11T00:46:11;98884.66;;;19.53;46.57
50125;BME280;36023;48.670;6.184;2023-05-11T00:48:37;98881.19;;;19.52;46.55
50125;BME280;36023;48.670;6.184;2023-05-11T00:51:03;98880.34;;;19.52;46.58
50125;BME280;36023;48.670;6.184;2023-05-11T00:53:30;98887.28;;;19.53;46.64
50125;BME280;36023;48.670;6.184;2023-05-11T00:55:55;98882.03;;;19.53;46.53
50125;BME280;36023;48.670;6.184;2023-05-11T00:58:21;98882.03;;;19.53;46.42
50125;BME280;36023;48.670;6.184;2023-05-11T01:00:49;98875.94;;;19.52;46.65
50125;BME280;36023;48.670;6.184;2023-05-11T01:03:15;98877.63;;;19.53;46.59
50125;BME280;36023;48.670;6.184;2023-05-11T01:08:46;98873.41;;;19.51;46.53
50125;BME280;36023;48.670;6.184;2023-05-11T01:11:18;98872.47;;;19.52;46.53
50125;BME280;36023;48.670;6.184;2023-05-11T01:13:52;98882.97;;;19.52;46.58
50125;BME280;36023;48.670;6.184;2023-05-11T01:16:21;98878.66;;;19.51;46.53
50125;BME280;36023;48.670;6.184;2023-05-11T01:19:23;98880.34;;;19.52;46.47
50125;BME280;36023;48.670;6.184;2023-05-11T01:21:52;98880.34;;;19.52;46.58
50125;BME280;36023;48.670;6.184;2023-05-11T01:25:00;98879.50;;;19.51;46.56
50125;BME280;36023;48.670;6.184;2023-05-11T01:30:37;98881.28;;;19.51;46.50
50125;BME280;36023;48.670;6.184;2023-05-11T01:33:10;98883.06;;;19.50;46.54
50125;BME280;36023;48.670;6.184;2023-05-11T01:35:52;98883.06;;;19.50;46.47
50125;BME280;36023;48.670;6.184;2023-05-11T01:38:21;98876.97;;;19.49;46.75
50125;BME280;36023;48.670;6.184;2023-05-11T01:40:53;98881.28;;;19.51;46.48
50125;BME280;36023;48.670;6.184;2023-05-11T01:43:23;98882.22;;;19.49;46.72
50125;BME280;36023;48.670;6.184;2023-05-11T01:45:51;98882.22;;;19.49;46.47
50125;BME280;36023;48.670;6.184;2023-05-11T01:48:21;98886.66;;;19.49;46.71
50125;BME280;36023;48.670;6.184;2023-05-11T01:50:49;98883.19;;;19.48;46.67
50125;BME280;36023;48.670;6.184;2023-05-11T01:53:16;98878.75;;;19.49;46.67
50125;BME280;36023;48.670;6.184;2023-05-11T01:55:44;98885.81;;;19.48;46.79
50125;BME280;36023;48.670;6.184;2023-05-11T01:58:13;98880.56;;;19.48;46.74
50125;BME280;36023;48.670;6.184;2023-05-11T02:00:43;98878.88;;;19.47;46.57
50125;BME280;36023;48.670;6.184;2023-05-11T02:03:10;98881.50;;;19.47;46.75
50125;BME280;36023;48.670;6.184;2023-05-11T02:05:38;98887.69;;;19.46;46.77
50125;BME280;36023;48.670;6.184;2023-05-11T02:08:05;98884.13;;;19.47;46.76
50125;BME280;36023;48.670;6.184;2023-05-11T02:10:33;98885.91;;;19.47;46.63
50125;BME280;36023;48.670;6.184;2023-05-11T02:13:02;98882.44;;;19.46;46.83
50125;BME280;36023;48.670;6.184;2023-05-11T02:15:30;98876.34;;;19.46;46.51
50125;BME280;36023;48.670;6.184;2023-05-11T02:17:57;98877.19;;;19.46;46.79
50125;BME280;36023;48.670;6.184;2023-05-11T02:20:25;98882.50;;;19.45;46.72
50125;BME280;36023;48.670;6.184;2023-05-11T02:22:52;98886.00;;;19.45;46.74
50125;BME280;36023;48.670;6.184;2023-05-11T02:25:19;98886.00;;;19.45;46.71
50125;BME280;36023;48.670;6.184;2023-05-11T02:27:48;98879.03;;;19.44;46.72
50125;BME280;36023;48.670;6.184;2023-05-11T02:30:14;98885.13;;;19.45;46.59
50125;BME280;36023;48.670;6.184;2023-05-11T02:32:50;98887.84;;;19.43;46.62
50125;BME280;36023;48.670;6.184;2023-05-11T02:35:23;98876.41;;;19.44;46.58
50125;BME280;36023;48.670;6.184;2023-05-11T02:37:53;98882.69;;;19.42;46.54
50125;BME280;36023;48.670;6.184;2023-05-11T02:40:28;98882.69;;;19.42;46.82
50125;BME280;36023;48.670;6.184;2023-05-11T02:42:59;98881.75;;;19.43;46.58
50125;BME280;36023;48.670;6.184;2023-05-11T02:45:30;98888.78;;;19.42;46.61
50125;BME280;36023;48.670;6.184;2023-05-11T02:47:57;98887.94;;;19.42;46.67
50125;BME280;36023;48.670;6.184;2023-05-11T02:50:27;98886.25;;;19.41;46.65
50125;BME280;36023;48.670;6.184;2023-05-11T02:52:58;98884.47;;;19.41;46.55
50125;BME280;36023;48.670;6.184;2023-05-11T02:55:26;98882.78;;;19.40;46.52
50125;BME280;36023;48.670;6.184;2023-05-11T02:57:54;98880.06;;;19.42;46.58
50125;BME280;36023;48.670;6.184;2023-05-11T03:00:20;98880.06;;;19.42;46.61
50125;BME280;36023;48.670;6.184;2023-05-11T03:02:48;98883.63;;;19.41;46.51
50125;BME280;36023;48.670;6.184;2023-05-11T03:05:16;98879.31;;;19.40;46.44
50125;BME280;36023;48.670;6.184;2023-05-11T03:07:44;98880.16;;;19.40;46.72
50125;BME280;36023;48.670;6.184;2023-05-11T03:10:10;98880.16;;;19.40;46.60
50125;BME280;36023;48.670;6.184;2023-05-11T03:12:38;98888.03;;;19.40;46.58
50125;BME280;36023;48.670;6.184;2023-05-11T03:15:05;98883.63;;;19.41;46.61
50125;BME280;36023;48.670;6.184;2023-05-11T03:17:35;98887.19;;;19.40;46.58
50125;BME280;36023;48.670;6.184;2023-05-11T03:20:03;98888.97;;;19.39;46.38
50125;BME280;36023;48.670;6.184;2023-05-11T03:22:32;98883.72;;;19.39;46.55
50125;BME280;36023;48.670;6.184;2023-05-11T03:25:00;98881.09;;;19.39;46.56
50125;BME280;36023;48.670;6.184;2023-05-11T03:27:30;98884.56;;;19.40;46.66
50125;BME280;36023;48.670;6.184;2023-05-11T03:29:57;98889.91;;;19.38;46.60
50125;BME280;36023;48.670;6.184;2023-05-11T03:32:26;98893.28;;;19.40;46.59
50125;BME280;36023;48.670;6.184;2023-05-11T03:34:55;98889.81;;;19.40;46.80
50125;BME280;36023;48.670;6.184;2023-05-11T03:37:22;98895.06;;;19.40;46.78
50125;BME280;36023;48.670;6.184;2023-05-11T03:39:51;98889.81;;;19.40;46.93
50125;BME280;36023;48.670;6.184;2023-05-11T03:42:20;98888.13;;;19.39;46.63
50125;BME280;36023;48.670;6.184;2023-05-11T03:44:48;98891.59;;;19.39;46.66
50125;BME280;36023;48.670;6.184;2023-05-11T03:47:16;98885.56;;;19.37;46.63
50125;BME280;36023;48.670;6.184;2023-05-11T03:49:42;98887.28;;;19.38;46.75
50125;BME280;36023;48.670;6.184;2023-05-11T03:52:08;98883.81;;;19.38;46.71
50125;BME280;36023;48.670;6.184;2023-05-11T03:54:35;98894.31;;;19.38;46.75
50125;BME280;36023;48.670;6.184;2023-05-11T03:57:01;98891.75;;;19.36;46.65
50125;BME280;36023;48.670;6.184;2023-05-11T03:59:29;98898.72;;;19.37;46.88
50125;BME280;36023;48.670;6.184;2023-05-11T04:01:55;98898.81;;;19.36;46.79
50125;BME280;36023;48.670;6.184;2023-05-11T04:04:29;98903.22;;;19.35;46.76
50125;BME280;36023;48.670;6.184;2023-05-11T04:06:57;98904.91;;;19.36;46.75
50125;BME280;36023;48.670;6.184;2023-05-11T04:09:26;98905.84;;;19.35;46.82
50125;BME280;36023;48.670;6.184;2023-05-11T04:11:52;98898.81;;;19.36;46.72
50125;BME280;36023;48.670;6.184;2023-05-11T04:14:17;98896.28;;;19.34;47.00
50125;BME280;36023;48.670;6.184;2023-05-11T04:16:43;98902.47;;;19.33;46.79
50125;BME280;36023;48.670;6.184;2023-05-11T04:19:11;98897.22;;;19.33;46.78
50125;BME280;36023;48.670;6.184;2023-05-11T04:21:37;98900.69;;;19.34;47.19
50125;BME280;36023;48.670;6.184;2023-05-11T04:24:03;98891.97;;;19.33;46.71
50125;BME280;36023;48.670;6.184;2023-05-11T04:26:30;98892.81;;;19.34;47.04
50125;BME280;36023;48.670;6.184;2023-05-11T04:28:58;98897.13;;;19.35;47.05
50125;BME280;36023;48.670;6.184;2023-05-11T04:31:23;98897.13;;;19.35;46.78
50125;BME280;36023;48.670;6.184;2023-05-11T04:33:51;98895.53;;;19.32;46.84
50125;BME280;36023;48.670;6.184;2023-05-11T04:36:16;98893.75;;;19.33;46.89
50125;BME280;36023;48.670;6.184;2023-05-11T04:38:43;98894.69;;;19.32;46.93
50125;BME280;36023;48.670;6.184;2023-05-11T04:41:09;98895.53;;;19.32;46.84
50125;BME280;36023;48.670;6.184;2023-05-11T04:43:37;98890.28;;;19.32;46.96
50125;BME280;36023;48.670;6.184;2023-05-11T04:46:05;98893.00;;;19.31;46.98
50125;BME280;36023;48.670;6.184;2023-05-11T04:48:31;98888.59;;;19.31;46.87
50125;BME280;36023;48.670;6.184;2023-05-11T04:50:57;98892.06;;;19.32;47.06
50125;BME280;36023;48.670;6.184;2023-05-11T04:53:27;98891.22;;;19.31;47.02
50125;BME280;36023;48.670;6.184;2023-05-11T04:55:53;98894.69;;;19.32;47.14
50125;BME280;36023;48.670;6.184;2023-05-11T04:58:19;98893.84;;;19.31;47.04
50125;BME280;36023;48.670;6.184;2023-05-11T05:00:47;98899.09;;;19.31;46.93
50125;BME280;36023;48.670;6.184;2023-05-11T05:03:13;98901.72;;;19.31;47.06
50125;BME280;36023;48.670;6.184;2023-05-11T05:05:40;98881.66;;;19.30;46.98
50125;BME280;36023;48.670;6.184;2023-05-11T05:08:09;98878.16;;;19.30;46.94
50125;BME280;36023;48.670;6.184;2023-05-11T05:10:35;98897.41;;;19.30;47.07
50125;BME280;36023;48.670;6.184;2023-05-11T05:13:00;98892.16;;;19.30;47.08
50125;BME280;36023;48.670;6.184;2023-05-11T05:15:26;98900.03;;;19.30;47.02
50125;BME280;36023;48.670;6.184;2023-05-11T05:17:52;98903.56;;;19.29;47.02
50125;BME280;36023;48.670;6.184;2023-05-11T05:20:20;98906.19;;;19.29;46.95
50125;BME280;36023;48.670;6.184;2023-05-11T05:22:46;98903.56;;;19.29;46.95
50125;BME280;36023;48.670;6.184;2023-05-11T05:25:12;98907.97;;;19.29;47.00
50125;BME280;36023;48.670;6.184;2023-05-11T05:27:38;98915.84;;;19.29;47.01
50125;BME280;36023;48.670;6.184;2023-05-11T05:30:08;98910.59;;;19.29;47.19
50125;BME280;36023;48.670;6.184;2023-05-11T05:32:34;98909.75;;;19.28;47.10
50125;BME280;36023;48.670;6.184;2023-05-11T05:35:00;98910.59;;;19.29;47.16
50125;BME280;36023;48.670;6.184;2023-05-11T05:37:27;98908.91;;;19.28;47.10
50125;BME280;36023;48.670;6.184;2023-05-11T05:39:52;98909.75;;;19.28;47.22
50125;BME280;36023;48.670;6.184;2023-05-11T05:42:18;98901.88;;;19.28;47.08
50125;BME280;36023;48.670;6.184;2023-05-11T05:44:44;98901.88;;;19.28;47.12
50125;BME280;36023;48.670;6.184;2023-05-11T05:47:10;98909.75;;;19.28;47.15
50125;BME280;36023;48.670;6.184;2023-05-11T05:49:36;98907.13;;;19.28;47.10
50125;BME280;36023;48.670;6.184;2023-05-11T05:52:04;98905.34;;;19.29;47.23
50125;BME280;36023;48.670;6.184;2023-05-11T05:54:30;98904.59;;;19.27;47.05
50125;BME280;36023;48.670;6.184;2023-05-11T05:56:56;98898.50;;;19.26;47.20
50125;BME280;36023;48.670;6.184;2023-05-11T05:59:23;98913.31;;;19.27;47.16
50125;BME280;36023;48.670;6.184;2023-05-11T06:01:54;98909.00;;;19.26;47.22
50125;BME280;36023;48.670;6.184;2023-05-11T06:04:22;98907.22;;;19.27;47.16
50125;BME280;36023;48.670;6.184;2023-05-11T06:06:48;98913.31;;;19.27;47.23
50125;BME280;36023;48.670;6.184;2023-05-11T06:09:13;98901.97;;;19.27;47.21
50125;BME280;36023;48.670;6.184;2023-05-11T06:11:41;98908.06;;;19.27;47.37
50125;BME280;36023;48.670;6.184;2023-05-11T06:14:07;98904.69;;;19.25;47.16
50125;BME280;36023;48.670;6.184;2023-05-11T06:16:33;98910.78;;;19.26;47.18
50125;BME280;36023;48.670;6.184;2023-05-11T06:18:59;98917.81;;;19.25;47.16
50125;BME280;36023;48.670;6.184;2023-05-11T06:21:25;98921.28;;;19.26;47.37
50125;BME280;36023;48.670;6.184;2023-05-11T06:23:51;98915.28;;;19.24;47.39
50125;BME280;36023;48.670;6.184;2023-05-11T06:26:18;98916.13;;;19.24;47.22
50125;BME280;36023;48.670;6.184;2023-05-11T06:28:44;98921.38;;;19.24;47.15
50125;BME280;36023;48.670;6.184;2023-05-11T06:31:13;98925.78;;;19.24;47.33
50125;BME280;36023;48.670;6.184;2023-05-11T06:33:42;98922.31;;;19.23;47.29
50125;BME280;36023;48.670;6.184;2023-05-11T06:36:17;98931.88;;;19.24;47.15
50125;BME280;36023;48.670;6.184;2023-05-11T06:38:44;98931.97;;;19.23;47.37
50125;BME280;36023;48.670;6.184;2023-05-11T06:41:11;98933.72;;;19.22;47.47
50125;BME280;36023;48.670;6.184;2023-05-11T06:43:37;98930.19;;;19.23;47.31
50125;BME280;36023;48.670;6.184;2023-05-11T06:46:03;98927.56;;;19.23;47.33
50125;BME280;36023;48.670;6.184;2023-05-11T06:48:30;98932.81;;;19.23;47.49
50125;BME280;36023;48.670;6.184;2023-05-11T06:50:57;98936.34;;;19.22;47.45
50125;BME280;36023;48.670;6.184;2023-05-11T06:53:23;98928.47;;;19.22;47.45
50125;BME280;36023;48.670;6.184;2023-05-11T06:55:48;98936.34;;;19.22;47.35
50125;BME280;36023;48.670;6.184;2023-05-11T06:58:20;98932.03;;;19.21;47.42
50125;BME280;36023;48.670;6.184;2023-05-11T07:00:47;98931.09;;;19.22;47.81
50125;BME280;36023;48.670;6.184;2023-05-11T07:03:12;98929.06;;;19.27;48.50
50125;BME280;36023;48.670;6.184;2023-05-11T07:05:38;98935.84;;;19.31;48.76
50125;BME280;36023;48.670;6.184;2023-05-11T07:08:05;98936.41;;;19.36;49.37
50125;BME280;36023;48.670;6.184;2023-05-11T07:10:31;98928.38;;;19.39;49.84
50125;BME280;36023;48.670;6.184;2023-05-11T07:12:57;98937.94;;;19.40;50.17
50125;BME280;36023;48.670;6.184;2023-05-11T07:15:22;98936.06;;;19.42;50.34
50125;BME280;36023;48.670;6.184;2023-05-11T07:17:48;98939.53;;;19.43;50.57
50125;BME280;36023;48.670;6.184;2023-05-11T07:20:14;98942.25;;;19.41;50.72
50125;BME280;36023;48.670;6.184;2023-05-11T07:22:40;98941.50;;;19.39;50.83
50125;BME280;36023;48.670;6.184;2023-05-11T07:25:07;98925.84;;;19.38;50.96
50125;BME280;36023;48.670;6.184;2023-05-11T07:27:34;98931.09;;;19.38;51.21
50125;BME280;36023;48.670;6.184;2023-05-11T07:30:00;98928.53;;;19.36;51.19
50125;BME280;36023;48.670;6.184;2023-05-11T07:32:26;98926.00;;;19.35;51.23
50125;BME280;36023;48.670;6.184;2023-05-11T07:34:54;98933.97;;;19.33;51.32
50125;BME280;36023;48.670;6.184;2023-05-11T07:37:20;98933.97;;;19.33;51.25
50125;BME280;36023;48.670;6.184;2023-05-11T07:39:46;98924.50;;;19.31;51.30
50125;BME280;36023;48.670;6.184;2023-05-11T07:42:13;98925.34;;;19.31;51.30
50125;BME280;36023;48.670;6.184;2023-05-11T07:44:39;98926.34;;;19.29;51.20
50125;BME280;36023;48.670;6.184;2023-05-11T07:47:04;98928.97;;;19.29;51.14
50125;BME280;36023;48.670;6.184;2023-05-11T07:49:30;98924.75;;;19.26;51.00
50125;BME280;36023;48.670;6.184;2023-05-11T07:51:56;98926.53;;;19.26;50.76
50125;BME280;36023;48.670;6.184;2023-05-11T07:54:21;98924.00;;;19.24;50.62
50125;BME280;36023;48.670;6.184;2023-05-11T07:56:49;98920.59;;;19.22;50.66
50125;BME280;36023;48.670;6.184;2023-05-11T07:59:16;98920.59;;;19.22;50.64
50125;BME280;36023;48.670;6.184;2023-05-11T08:01:42;98921.53;;;19.21;50.50
50125;BME280;36023;48.670;6.184;2023-05-11T08:04:08;98925.00;;;19.21;50.49
50125;BME280;36023;48.670;6.184;2023-05-11T08:06:34;98918.06;;;19.20;50.39
50125;BME280;36023;48.670;6.184;2023-05-11T08:09:00;98920.78;;;19.19;50.42
50125;BME280;36023;48.670;6.184;2023-05-11T08:11:26;98924.25;;;19.19;50.08
50125;BME280;36023;48.670;6.184;2023-05-11T08:13:51;98926.03;;;19.19;50.19
50125;BME280;36023;48.670;6.184;2023-05-11T08:16:17;98921.72;;;19.18;50.04
50125;BME280;36023;48.670;6.184;2023-05-11T08:18:43;98919.94;;;19.18;50.22
50125;BME280;36023;48.670;6.184;2023-05-11T08:21:08;98923.50;;;19.17;50.11
50125;BME280;36023;48.670;6.184;2023-05-11T08:23:34;98926.13;;;19.17;50.05
50125;BME280;36023;48.670;6.184;2023-05-11T08:26:01;98924.34;;;19.18;50.05
50125;BME280;36023;48.670;6.184;2023-05-11T08:28:27;98922.66;;;19.17;49.91
50125;BME280;36023;48.670;6.184;2023-05-11T08:30:56;98918.25;;;19.17;49.67
50125;BME280;36023;48.670;6.184;2023-05-11T08:33:22;98913.00;;;19.17;49.88
50125;BME280;36023;48.670;6.184;2023-05-11T08:35:50;98924.34;;;19.18;49.87
50125;BME280;36023;48.670;6.184;2023-05-11T08:38:15;98916.56;;;19.16;49.89
50125;BME280;36023;48.670;6.184;2023-05-11T08:40:43;98924.44;;;19.16;49.71
50125;BME280;36023;48.670;6.184;2023-05-11T08:43:14;98929.69;;;19.16;49.75
50125;BME280;36023;48.670;6.184;2023-05-11T08:45:47;98927.91;;;19.17;49.53
50125;BME280;36023;48.670;6.184;2023-05-11T08:48:15;98924.34;;;19.18;49.68
50125;BME280;36023;48.670;6.184;2023-05-11T08:50:45;98917.22;;;19.20;49.96
50125;BME280;36023;48.670;6.184;2023-05-11T08:53:12;98917.97;;;19.22;50.04
50125;BME280;36023;48.670;6.184;2023-05-11T08:55:38;98925.00;;;19.21;49.96
50125;BME280;36023;48.670;6.184;2023-05-11T08:58:06;98918.91;;;19.21;49.86
50125;BME280;36023;48.670;6.184;2023-05-11T09:00:33;98923.31;;;19.20;49.72
50125;BME280;36023;48.670;6.184;2023-05-11T09:02:59;98919.75;;;19.21;49.72
50125;BME280;36023;48.670;6.184;2023-05-11T09:05:26;98916.38;;;19.19;49.69
50125;BME280;36023;48.670;6.184;2023-05-11T09:07:58;98919.00;;;19.19;49.63
50125;BME280;36023;48.670;6.184;2023-05-11T09:10:27;98919.84;;;19.20;49.62
50125;BME280;36023;48.670;6.184;2023-05-11T09:12:52;98909.44;;;19.18;49.60
50125;BME280;36023;48.670;6.184;2023-05-11T09:15:18;98907.66;;;19.19;49.58
50125;BME280;36023;48.670;6.184;2023-05-11T09:17:44;98906.81;;;19.18;49.46
50125;BME280;36023;48.670;6.184;2023-05-11T09:20:10;98903.34;;;19.18;49.45
50125;BME280;36023;48.670;6.184;2023-05-11T09:22:43;98905.97;;;19.18;49.45
50125;BME280;36023;48.670;6.184;2023-05-11T09:25:14;98904.19;;;19.18;49.40
50125;BME280;36023;48.670;6.184;2023-05-11T09:27:45;98901.66;;;19.17;49.46
50125;BME280;36023;48.670;6.184;2023-05-11T09:30:15;98906.81;;;19.18;49.43
50125;BME280;36023;48.670;6.184;2023-05-11T09:40:31;98898.09;;;19.18;49.26
50125;BME280;36023;48.670;6.184;2023-05-11T09:42:58;98889.38;;;19.17;49.42
50125;BME280;36023;48.670;6.184;2023-05-11T09:45:42;98892.00;;;19.17;49.37
50125;BME280;36023;48.670;6.184;2023-05-11T09:48:29;98886.75;;;19.17;49.34
50125;BME280;36023;48.670;6.184;2023-05-11T09:51:01;98887.50;;;19.19;49.38
50125;BME280;36023;48.670;6.184;2023-05-11T09:53:37;98884.13;;;19.17;49.37
50125;BME280;36023;48.670;6.184;2023-05-11T09:56:05;98887.59;;;19.18;49.42
50125;BME280;36023;48.670;6.184;2023-05-11T09:58:49;98889.38;;;19.17;49.42
50125;BME280;36023;48.670;6.184;2023-05-11T10:01:18;98884.97;;;19.18;49.42
50125;BME280;36023;48.670;6.184;2023-05-11T10:03:52;98876.25;;;19.17;49.42
50125;BME280;36023;48.670;6.184;2023-05-11T10:06:21;98875.41;;;19.17;49.47
50125;BME280;36023;48.670;6.184;2023-05-11T10:08:47;98875.41;;;19.17;49.40
50125;BME280;36023;48.670;6.184;2023-05-11T10:11:13;98872.78;;;19.17;49.46
50125;BME280;36023;48.670;6.184;2023-05-11T10:13:39;98874.56;;;19.16;49.51
50125;BME280;36023;48.670;6.184;2023-05-11T10:16:08;98875.41;;;19.17;49.61
50125;BME280;36023;48.670;6.184;2023-05-11T10:18:35;98871.00;;;19.17;49.60
50125;BME280;36023;48.670;6.184;2023-05-11T10:21:02;98863.13;;;19.17;49.57
50125;BME280;36023;48.670;6.184;2023-05-11T10:23:29;98863.97;;;19.18;49.63
50125;BME280;36023;48.670;6.184;2023-05-11T10:25:55;98865.75;;;19.17;49.57
50125;BME280;36023;48.670;6.184;2023-05-11T10:28:23;98862.19;;;19.18;49.66
50125;BME280;36023;48.670;6.184;2023-05-11T10:30:50;98856.94;;;19.18;49.67
50125;BME280;36023;48.670;6.184;2023-05-11T10:33:16;98856.94;;;19.18;49.72
50125;BME280;36023;48.670;6.184;2023-05-11T10:35:44;98854.31;;;19.18;49.77
50125;BME280;36023;48.670;6.184;2023-05-11T10:38:10;98850.75;;;19.19;49.79
50125;BME280;36023;48.670;6.184;2023-05-11T10:40:39;98855.06;;;19.20;49.84
50125;BME280;36023;48.670;6.184;2023-05-11T10:59:44;98844.22;;;19.27;50.48
50125;BME280;36023;48.670;6.184;2023-05-11T11:02:14;98838.97;;;19.27;50.41
50125;BME280;36023;48.670;6.184;2023-05-11T11:04:46;98840.63;;;19.28;50.47
50125;BME280;36023;48.670;6.184;2023-05-11T11:07:14;98839.78;;;19.27;50.46
50125;BME280;36023;48.670;6.184;2023-05-11T11:09:56;98844.94;;;19.29;50.56
50125;BME280;36023;48.670;6.184;2023-05-11T11:12:25;98830.97;;;19.28;50.58
50125;BME280;36023;48.670;6.184;2023-05-11T11:15:02;98831.81;;;19.29;50.60
50125;BME280;36023;48.670;6.184;2023-05-11T11:17:33;98827.41;;;19.29;50.60
50125;BME280;36023;48.670;6.184;2023-05-11T11:20:03;98827.41;;;19.29;50.69
50125;BME280;36023;48.670;6.184;2023-05-11T11:25:04;98828.19;;;19.31;50.70
50125;BME280;36023;48.670;6.184;2023-05-11T11:30:22;98830.81;;;19.31;50.65
50125;BME280;36023;48.670;6.184;2023-05-11T11:33:38;98827.34;;;19.31;50.86
50125;BME280;36023;48.670;6.184;2023-05-11T11:38:18;98816.75;;;19.32;50.92
50125;BME280;36023;48.670;6.184;2023-05-11T11:40:47;98823.78;;;19.32;51.08
50125;BME280;36023;48.670;6.184;2023-05-11T11:43:22;98821.06;;;19.33;51.12
50125;BME280;36023;48.670;6.184;2023-05-11T11:45:56;98819.28;;;19.34;51.12
50125;BME280;36023;48.670;6.184;2023-05-11T11:48:32;98824.53;;;19.34;51.30
50125;BME280;36023;48.670;6.184;2023-05-11T11:51:10;98822.84;;;19.33;51.32
50125;BME280;36023;48.670;6.184;2023-05-11T11:56:03;98823.59;;;19.35;51.40
50125;BME280;36023;48.670;6.184;2023-05-11T12:01:19;98820.88;;;19.36;51.64
50125;BME280;36023;48.670;6.184;2023-05-11T12:03:53;98820.88;;;19.36;51.70
50125;BME280;36023;48.670;6.184;2023-05-11T12:06:38;98823.50;;;19.36;51.60
50125;BME280;36023;48.670;6.184;2023-05-11T12:09:05;98817.28;;;19.37;51.77
50125;BME280;36023;48.670;6.184;2023-05-11T12:11:31;98815.44;;;19.39;51.84
50125;BME280;36023;48.670;6.184;2023-05-11T12:13:58;98824.28;;;19.38;51.90
50125;BME280;36023;48.670;6.184;2023-05-11T12:16:24;98817.22;;;19.39;52.06
50125;BME280;36023;48.670;6.184;2023-05-11T12:18:54;98822.47;;;19.39;52.04
50125;BME280;36023;48.670;6.184;2023-05-11T12:21:22;98817.13;;;19.40;52.21
50125;BME280;36023;48.670;6.184;2023-05-11T12:23:56;98816.28;;;19.40;52.17
50125;BME280;36023;48.670;6.184;2023-05-11T12:26:24;98819.75;;;19.40;52.08
50125;BME280;36023;48.670;6.184;2023-05-11T12:29:06;98811.97;;;19.39;52.19
50125;BME280;36023;48.670;6.184;2023-05-11T12:31:36;98808.41;;;19.40;52.31
50125;BME280;36023;48.670;6.184;2023-05-11T12:34:01;98812.81;;;19.39;52.31
50125;BME280;36023;48.670;6.184;2023-05-11T12:36:28;98812.81;;;19.39;52.39
50125;BME280;36023;48.670;6.184;2023-05-11T12:38:54;98817.22;;;19.39;52.33
50125;BME280;36023;48.670;6.184;2023-05-11T12:41:22;98821.53;;;19.40;52.39
50125;BME280;36023;48.670;6.184;2023-05-11T12:43:52;98826.78;;;19.40;52.43
50125;BME280;36023;48.670;6.184;2023-05-11T12:46:19;98825.94;;;19.39;52.35
50125;BME280;36023;48.670;6.184;2023-05-11T12:48:46;98825.84;;;19.41;52.42
50125;BME280;36023;48.670;6.184;2023-05-11T12:51:12;98821.44;;;19.41;52.38
50125;BME280;36023;48.670;6.184;2023-05-11T12:53:39;98823.22;;;19.41;52.41
50125;BME280;36023;48.670;6.184;2023-05-11T12:56:05;98815.34;;;19.41;52.36
50125;BME280;36023;48.670;6.184;2023-05-11T12:58:39;98812.81;;;19.39;52.40
50125;BME280;36023;48.670;6.184;2023-05-11T13:01:06;98814.50;;;19.40;52.31
50125;BME280;36023;48.670;6.184;2023-05-11T13:03:35;98819.75;;;19.40;52.36
50125;BME280;36023;48.670;6.184;2023-05-11T13:06:06;98814.50;;;19.40;52.27
50125;BME280;36023;48.670;6.184;2023-05-11T13:08:52;98814.50;;;19.40;52.37
50125;BME280;36023;48.670;6.184;2023-05-11T13:11:25;98808.31;;;19.41;52.41
50125;BME280;36023;48.670;6.184;2023-05-11T13:13:52;98805.69;;;19.41;52.44
50125;BME280;36023;48.670;6.184;2023-05-11T13:16:28;98811.78;;;19.42;52.48
50125;BME280;36023;48.670;6.184;2023-05-11T13:19:02;98808.22;;;19.43;52.56
50125;BME280;36023;48.670;6.184;2023-05-11T13:21:28;98810.00;;;19.42;52.47
50125;BME280;36023;48.670;6.184;2023-05-11T13:23:55;98802.88;;;19.44;52.61
50125;BME280;36023;48.670;6.184;2023-05-11T13:26:22;98800.22;;;19.44;52.61
50125;BME280;36023;48.670;6.184;2023-05-11T13:28:50;98793.13;;;19.46;52.61
50125;BME280;36023;48.670;6.184;2023-05-11T13:31:16;98792.34;;;19.44;52.56
50125;BME280;36023;48.670;6.184;2023-05-11T13:33:45;98797.53;;;19.46;52.68
50125;BME280;36023;48.670;6.184;2023-05-11T13:36:10;98800.06;;;19.47;52.72
50125;BME280;36023;48.670;6.184;2023-05-11T13:38:36;98797.44;;;19.47;52.78
50125;BME280;36023;48.670;6.184;2023-05-11T13:41:04;98790.41;;;19.48;52.73
50125;BME280;36023;48.670;6.184;2023-05-11T13:43:31;98788.63;;;19.48;52.81
50125;BME280;36023;48.670;6.184;2023-05-11T13:45:56;98789.56;;;19.47;52.83
50125;BME280;36023;48.670;6.184;2023-05-11T13:48:22;98791.25;;;19.48;52.72
50125;BME280;36023;48.670;6.184;2023-05-11T13:50:48;98781.59;;;19.49;52.90